Flight Track Log - Related Links

Times and Time Zones

All times are in EDT time to prevent confusion due to time zone crossing. See the FLG4081 flight status page for this flight to view local times or setup timezone preferences in your user account.

Time Position Orientation Groundspeed Altitude Reporting Facility
EDT Latitude Longitude Course Direction KTS MPH feet Rate Location/Type
Mon 12:53:42 AM 37.4528 -77.3917 251° West 193 222 4,200  Level Washington Center
Mon 12:54:42 AM 37.4411 -77.4672 259° West 231 266 7,100 3,074 Climbing Washington Center
Mon 12:55:00 AM 37.3984 -77.7517 254° West  Level FlightAware Approximate
Mon 12:55:43 AM 37.4272 -77.5558 259° West 249 287 10,400  Level Washington Center
Mon 12:56:00 AM 37.3724 -77.8659 254° West  Level FlightAware Approximate
Mon 12:56:42 AM 37.4131 -77.6522 260° West 268 308 12,500  Level Washington Center
Mon 12:57:00 AM 37.3500 -77.9807 270° West  Level FlightAware Approximate
Mon 12:57:42 AM 37.3944 -77.7617 258° West 296 341 14,500  Level Washington Center
Mon 12:58:42 AM 37.3756 -77.8864 259° West 329 379 16,600 1,770 Climbing Washington Center
Mon 12:59:44 AM 37.3544 -78.0008 257° West 335 386 18,100 1,350 Climbing Washington Center
Mon 01:00:42 AM 37.3269 -78.1200 254° West 341 392 19,300 1,050 Climbing Washington Center
Mon 01:01:44 AM 37.3081 -78.2264 257° West 354 407 20,200 950 Climbing Washington Center
Mon 01:02:42 AM 37.3050 -78.3569 268° West 367 422 21,200 1,091 Climbing Washington Center
Mon 01:03:45 AM 37.3922 -78.4594 317° Northwest 344 396 22,400 1,050 Climbing Washington Center
Mon 01:04:42 AM 37.4672 -78.5564 314° West 356 410 23,300 966 Climbing Washington Center
Mon 01:05:43 AM 37.5439 -78.6511 316° Northwest 372 428 24,300 992 Climbing Washington Center
Mon 01:06:43 AM 37.6147 -78.7378 316° Northwest 383 441 25,300 992 Climbing Washington Center
Mon 01:07:44 AM 37.6914 -78.8356 315° West 388 447 26,300 958 Climbing Washington Center
Mon 01:08:42 AM 37.7658 -78.9333 314° West 393 452 27,200 864 Climbing Washington Center
Mon 01:09:42 AM 37.8617 -79.0192 325° Northwest 393 452 28,000 393 Climbing Washington Center
Mon 01:10:44 AM 37.9553 -79.0997 326° Northwest 399 459 28,000  Level Washington Center
Mon 01:11:44 AM 38.0528 -79.1833 326° Northwest 411 473 28,000  Level Washington Center
Mon 01:12:42 AM 38.1422 -79.2589 326° Northwest 426 490 28,000 151 Level Washington Center
Mon 01:13:43 AM 38.2417 -79.3458 326° Northwest 432 497 28,300 645 Climbing Washington Center
Mon 01:14:43 AM 38.3392 -79.4275 327° Northwest 432 497 29,300 850 Climbing Washington Center
Mon 01:15:43 AM 38.4406 -79.5175 325° Northwest 424 488 30,000 350 Climbing Washington Center
Mon 01:16:43 AM 38.5358 -79.5997 326° Northwest 424 488 30,000 -347 Level Washington Center
Mon 01:17:44 AM 38.6372 -79.6875 326° Northwest 424 488 29,300 -893 Descending Washington Center
Mon 01:18:44 AM 38.7364 -79.7783 324° Northwest 429 494 28,200 -650 Descending Washington Center
Mon 01:19:44 AM 38.8336 -79.8583 327° Northwest 442 509 28,000 -100 Descending Washington Center
Mon 01:20:44 AM 38.9347 -79.9469 326° Northwest 449 517 28,000  Level Washington Center
Mon 01:21:45 AM 39.0378 -80.0333 327° Northwest 449 517 28,000  Level Washington Center
Mon 01:22:45 AM 39.1408 -80.1225 326° Northwest 449 517 28,000 -558 Level Washington Center
Mon 01:24:00 AM 39.2444 -80.2022 326° Northwest  Level FlightAware Approximate
Mon 01:31:00 AM 39.8013 -80.7011 326° Northwest  Level FlightAware Approximate
Mon 01:32:00 AM 39.8807 -80.7731 325° Northwest  Level FlightAware Approximate
Mon 01:33:00 AM 39.9601 -80.8452 325° Northwest  Level FlightAware Approximate
Mon 01:34:00 AM 40.0394 -80.9174 325° Northwest  Level FlightAware Approximate
Mon 01:35:00 AM 40.1136 -80.9853 325° Northwest  Level FlightAware Approximate
Mon 01:36:00 AM 40.1878 -81.0533 325° Northwest  Level FlightAware Approximate
Mon 01:37:00 AM 40.2620 -81.1215 325° Northwest  Level FlightAware Approximate
Mon 01:38:00 AM 40.3361 -81.1898 325° Northwest  Level FlightAware Approximate
Mon 01:39:00 AM 40.4102 -81.2582 325° Northwest  Level FlightAware Approximate
Mon 01:40:00 AM 40.4842 -81.3268 325° Northwest  Level FlightAware Approximate
Mon 01:41:00 AM 40.5582 -81.3956 325° Northwest  Level FlightAware Approximate
Mon 01:42:00 AM 40.6318 -81.4651 323° Northwest  Level FlightAware Approximate
Mon 01:43:00 AM 40.7040 -81.5372 323° Northwest  Level FlightAware Approximate
Mon 01:44:00 AM 40.7766 -81.6086 324° Northwest  Level FlightAware Approximate
Mon 01:45:00 AM 40.8501 -81.6786 324° Northwest  Level FlightAware Approximate
Mon 01:46:00 AM 40.9236 -81.7487 324° Northwest  Level FlightAware Approximate
Mon 01:47:00 AM 40.9970 -81.8190 324° Northwest  Level FlightAware Approximate
Mon 01:48:00 AM 41.0704 -81.8894 324° Northwest  Level FlightAware Approximate
Mon 01:49:00 AM 41.1439 -81.9596 326° Northwest  Level FlightAware Approximate
Mon 01:50:00 AM 41.2187 -82.0275 326° Northwest  Level FlightAware Approximate
Mon 01:51:00 AM 41.2935 -82.0955 326° Northwest  Level FlightAware Approximate
Mon 01:52:00 AM 41.3615 -82.1731 304° West  Level FlightAware Approximate
Mon 01:53:00 AM 41.4181 -82.2673 309° West  Level FlightAware Approximate
Mon 01:54:00 AM 41.4754 -82.3609 309° West  Level FlightAware Approximate
Mon 01:55:00 AM 41.5326 -82.4547 309° West  Level FlightAware Approximate
Mon 01:56:00 AM 41.5895 -82.5490 309° West  Level FlightAware Approximate
Mon 01:56:31 AM 42.0667 -83.0586 315° West 264 304 8,600  Level Cleveland Center
Mon 01:57:00 AM 41.6461 -82.6435 309° West  Level FlightAware Approximate
Mon 01:57:37 AM 42.1297 -83.1283 321° Northwest 262 302 6,100  Level Cleveland Center
Mon 01:58:00 AM 41.7024 -82.7382 304° West  Level FlightAware Approximate
Mon 01:58:38 AM 42.1828 -83.1836 322° Northwest 250 288 4,100  Level Cleveland Center
Mon 01:59:00 AM 41.7685 -82.8192 314° West  Level FlightAware Approximate
Mon 01:59:38 AM 42.2336 -83.2361 323° Northwest 212 244 3,000  Level Cleveland Center
Mon 02:00:00 AM 41.8312 -82.9069 314° West  Level FlightAware Approximate
Mon 02:00:39 AM 42.2681 -83.2825 315° West 134 154 2,600  Level Cleveland Center
Mon 02:01:00 AM 41.8950 -82.9933 315° West  Level FlightAware Approximate
Mon 02:01:40 AM 42.2731 -83.3306 278° West 122 140 1,900  Level Cleveland Center
Mon 02:02:40 AM 42.2456 -83.3544 213° Southwest 119 137 1,200 -700 Descending Cleveland Center
Mon 02:04:00 AM 42.2124 -83.3534 180° South  Level Estimated
Mon 02:11:00 AM 42.2124 -83.3534 180° South  Level Estimated
Mon 02:12:00 AM 42.2124 -83.3534 180° South  Level Estimated
Mon 02:13:00 AM 42.2124 -83.3534 180° South  Level Estimated
Mon 02:14:00 AM 42.2124 -83.3534 180° South  Level Estimated
Mon 02:15:00 AM 42.2124 -83.3534 180° South  Level Estimated
Mon 02:16:00 AM 42.2124 -83.3534 180° South  Level Estimated
Mon 02:17:00 AM 42.2124 -83.3534 180° South  Level Estimated
Mon 02:18:00 AM 42.2124 -83.3534 180° South  Level Estimated
Mon 02:19:00 AM 42.2124 -83.3534 180° South  Level Estimated

Login

Don't have an account? Register now (free) for customized features, flight alerts, and more!